Terminal Aerodrome Forecast
Issued by NWS Birmingham, AL

Home | Current Version | Previous Version | Text Only | Print | Product List | Glossary On
Versions: 1 2 3 4 5 6 7 8 9 10 11 12 13 14 15 16 17
000
FTUS44 KBMX 211100
TAFBHM
TAF
KBHM 211138Z 2112/2212 05005KT P6SM SCT008 OVC015
      TEMPO 2112/2115 OVC008
     FM211900 12006KT P6SM OVC025
     FM220300 12006KT P6SM OVC012
     FM220900 12005KT 5SM BR OVC008=

USA.gov is the U.S. government's official web portal to all federal, state and local government web resources and services.